Time;durP1;ratioP1;P1;durP2;ratioP2;P2;SDS_P1;SDS_P2;PMS_P1;PMS_P2;Temp;Humidity;BMP_temperature;BMP_pressure;BME280_temperature;BME280_humidity;BME280_pressure;Samples;Min_cycle;Max_cycle;Signal;HPM_P1;HPM_P2
2023/10/12 00:02:21;;;;;;;7.27;1.73;;;13.90;99.90;;;;;;5082100;28;20217;-50
2023/10/12 00:04:53;;;;;;;8.80;1.33;;;13.80;99.90;;;;;;5058956;28;20202;-53
2023/10/12 00:07:33;;;;;;;5.70;1.37;;;13.80;99.90;;;;;;5087484;28;20209;-43
2023/10/12 00:10:19;;;;;;;6.33;1.17;;;13.80;99.90;;;;;;5091835;28;20258;-54
2023/10/12 00:12:50;;;;;;;9.63;1.43;;;13.80;99.90;;;;;;5078344;28;20190;-53
2023/10/12 00:15:23;;;;;;;10.37;1.90;;;13.80;99.90;;;;;;5091099;28;20189;-45
2023/10/12 00:17:51;;;;;;;9.73;1.90;;;13.80;99.90;;;;;;5079038;28;20834;-53
2023/10/12 00:20:22;;;;;;;12.00;2.40;;;13.80;99.90;;;;;;5076456;28;20270;-45
2023/10/12 00:22:49;;;;;;;12.73;3.13;;;13.60;99.90;;;;;;5081111;28;20200;-52
2023/10/12 00:25:16;;;;;;;11.70;2.33;;;13.40;99.90;;;;;;5080315;28;20194;-46
2023/10/12 00:27:43;;;;;;;11.37;2.43;;;13.20;99.90;;;;;;5075899;28;20225;-43
2023/10/12 00:30:13;;;;;;;8.20;2.63;;;13.20;99.90;;;;;;5066040;28;20229;-48
2023/10/12 00:32:40;;;;;;;11.70;2.30;;;13.10;99.90;;;;;;5084938;28;20672;-45
2023/10/12 00:35:10;;;;;;;16.37;3.10;;;13.00;99.90;;;;;;5057331;28;20201;-46
2023/10/12 00:37:41;;;;;;;10.80;2.50;;;13.00;99.90;;;;;;5084891;28;20197;-46
2023/10/12 00:40:25;;;;;;;8.10;1.97;;;13.00;99.90;;;;;;5064320;28;20212;-43
2023/10/12 00:42:52;;;;;;;9.63;2.60;;;13.00;99.90;;;;;;5060793;28;20186;-56
2023/10/12 00:45:29;;;;;;;9.10;2.23;;;12.90;99.90;;;;;;5079810;28;20242;-45
2023/10/12 00:48:01;;;;;;;12.03;3.13;;;12.90;99.90;;;;;;5087567;28;20198;-52
2023/10/12 00:50:30;;;;;;;9.67;2.13;;;12.90;99.90;;;;;;5059177;28;20225;-44
2023/10/12 00:53:14;;;;;;;10.70;2.10;;;12.90;99.90;;;;;;5088244;28;20210;-53
2023/10/12 00:55:43;;;;;;;10.10;1.90;;;12.80;99.90;;;;;;5088381;28;20194;-42
2023/10/12 00:58:10;;;;;;;10.17;2.33;;;12.80;99.90;;;;;;5074025;28;20202;-46
2023/10/12 01:00:44;;;;;;;13.23;3.17;;;12.70;99.90;;;;;;5065416;28;20786;-51
2023/10/12 01:06:12;;;;;;;12.67;2.10;;;12.60;99.90;;;;;;5033182;28;20672;-54
2023/10/12 01:08:42;;;;;;;9.90;2.13;;;12.60;99.90;;;;;;5073839;28;20206;-46
2023/10/12 01:11:17;;;;;;;7.00;2.00;;;12.60;99.90;;;;;;5084789;28;20984;-45
2023/10/12 01:13:44;;;;;;;16.17;2.13;;;12.50;99.90;;;;;;5084913;28;20234;-56
2023/10/12 01:16:21;;;;;;;9.60;1.97;;;12.50;99.90;;;;;;5074640;28;20204;-45
2023/10/12 01:18:51;;;;;;;10.57;2.70;;;12.50;99.90;;;;;;5077560;28;20216;-56
2023/10/12 01:21:18;;;;;;;16.20;2.13;;;12.50;99.90;;;;;;5069144;28;20210;-44
2023/10/12 01:23:51;;;;;;;13.10;3.03;;;12.50;99.90;;;;;;5068509;28;20832;-51
2023/10/12 01:26:18;;;;;;;8.83;1.53;;;12.40;99.90;;;;;;5061818;28;20214;-44
2023/10/12 01:28:49;;;;;;;5.10;1.47;;;12.40;99.90;;;;;;5083769;28;20864;-53
2023/10/12 01:31:27;;;;;;;9.17;1.67;;;12.50;99.90;;;;;;5075706;28;20233;-54
2023/10/12 01:33:55;;;;;;;10.23;2.00;;;12.40;99.90;;;;;;5081674;28;20556;-49
2023/10/12 01:36:23;;;;;;;10.67;1.97;;;12.40;99.90;;;;;;5050477;28;20190;-47
2023/10/12 01:39:10;;;;;;;9.63;2.10;;;12.40;99.90;;;;;;5062142;28;21339;-53
2023/10/12 01:41:37;;;;;;;10.77;1.83;;;12.40;99.90;;;;;;5063229;28;20217;-50
2023/10/12 01:44:10;;;;;;;8.63;1.50;;;12.40;99.90;;;;;;5075504;28;20429;-51
2023/10/12 01:46:39;;;;;;;9.83;2.23;;;12.40;99.90;;;;;;5076796;28;20218;-49
2023/10/12 01:49:07;;;;;;;13.20;1.80;;;12.50;99.90;;;;;;5078289;28;20197;-47
2023/10/12 01:51:36;;;;;;;9.20;1.70;;;12.40;99.90;;;;;;5034196;28;20211;-44
2023/10/12 01:54:06;;;;;;;9.60;2.33;;;12.40;99.90;;;;;;5082273;28;20206;-45
2023/10/12 01:56:34;;;;;;;7.57;1.90;;;12.50;99.90;;;;;;5069355;28;20196;-49
2023/10/12 01:59:04;;;;;;;12.80;2.13;;;12.50;99.90;;;;;;5066743;28;20675;-54
2023/10/12 02:01:33;;;;;;;8.07;1.50;;;12.50;99.90;;;;;;5054520;28;20338;-43
2023/10/12 02:04:02;;;;;;;8.77;2.40;;;12.40;99.90;;;;;;5083417;28;20216;-54
2023/10/12 02:06:29;;;;;;;7.37;1.90;;;12.30;99.90;;;;;;5056415;28;20217;-44
2023/10/12 02:09:08;;;;;;;7.77;1.80;;;12.30;99.90;;;;;;5069508;28;20202;-53
2023/10/12 02:11:53;;;;;;;5.73;1.77;;;12.30;99.90;;;;;;5086017;28;20205;-46
2023/10/12 02:14:24;;;;;;;7.53;2.03;;;12.30;99.90;;;;;;5078418;28;20192;-43
2023/10/12 02:16:53;;;;;;;8.90;2.30;;;12.30;99.90;;;;;;5079976;28;20193;-55
2023/10/12 02:19:31;;;;;;;9.93;1.97;;;12.30;99.90;;;;;;5088177;28;20436;-44
2023/10/12 02:22:01;;;;;;;13.40;2.37;;;12.30;99.90;;;;;;5030869;28;20644;-56
2023/10/12 02:24:28;;;;;;;7.97;1.47;;;12.30;99.90;;;;;;5086760;28;20197;-44
2023/10/12 02:27:00;;;;;;;8.07;2.33;;;12.30;99.90;;;;;;5074733;28;20244;-54
2023/10/12 02:29:32;;;;;;;12.70;1.83;;;12.30;99.90;;;;;;5093600;28;20225;-49
2023/10/12 02:32:16;;;;;;;7.93;1.53;;;12.30;99.90;;;;;;5079225;28;20198;-47
2023/10/12 02:34:43;;;;;;;8.50;2.67;;;12.30;99.90;;;;;;5087338;28;20539;-51
2023/10/12 02:37:19;;;;;;;12.40;2.17;;;12.30;99.90;;;;;;5038229;28;20194;-44
2023/10/12 02:39:48;;;;;;;6.53;1.80;;;12.30;99.90;;;;;;5086005;28;20221;-53
2023/10/12 02:42:22;;;;;;;9.00;2.00;;;12.30;99.90;;;;;;5087088;28;20193;-43
2023/10/12 02:47:51;;;;;;;15.50;2.13;;;12.30;99.90;;;;;;5011234;28;20239;-54
2023/10/12 02:50:27;;;;;;;11.07;2.13;;;12.20;99.90;;;;;;5020655;28;21010;-44
2023/10/12 02:52:54;;;;;;;12.07;1.80;;;12.30;99.90;;;;;;5013337;28;20203;-53
2023/10/12 02:55:40;;;;;;;8.53;2.07;;;12.20;99.90;;;;;;5074947;28;20277;-43
2023/10/12 02:58:18;;;;;;;15.43;2.57;;;12.30;99.90;;;;;;5079970;28;20341;-45
2023/10/12 03:00:54;;;;;;;12.13;2.43;;;12.20;99.90;;;;;;5082931;28;20217;-54
2023/10/12 03:03:25;;;;;;;7.07;1.93;;;12.20;99.90;;;;;;5057078;28;20258;-43
2023/10/12 03:05:58;;;;;;;6.80;1.60;;;12.20;99.90;;;;;;5083273;28;20194;-52
2023/10/12 03:08:30;;;;;;;7.40;2.13;;;12.20;99.90;;;;;;5084646;28;20214;-45
2023/10/12 03:11:12;;;;;;;7.37;1.60;;;12.20;99.90;;;;;;5029994;28;20714;-54
2023/10/12 03:13:54;;;;;;;6.63;1.90;;;12.20;99.90;;;;;;5064384;28;20221;-45
2023/10/12 03:16:22;;;;;;;9.37;2.37;;;12.20;99.90;;;;;;5064817;28;20338;-46
2023/10/12 03:19:00;;;;;;;13.93;2.70;;;12.10;99.90;;;;;;5076780;28;20206;-54
2023/10/12 03:21:33;;;;;;;6.27;1.97;;;12.10;99.90;;;;;;5087692;28;20214;-44
2023/10/12 03:24:03;;;;;;;8.83;2.23;;;12.10;99.90;;;;;;5073774;28;20323;-54
2023/10/12 03:26:32;;;;;;;9.10;2.60;;;12.10;99.90;;;;;;5054852;28;20206;-46
2023/10/12 03:29:09;;;;;;;10.37;2.20;;;12.10;99.90;;;;;;5070652;28;20213;-53
2023/10/12 03:31:52;;;;;;;7.93;2.10;;;12.10;99.90;;;;;;5091236;28;20212;-46
2023/10/12 03:34:35;;;;;;;11.77;1.80;;;12.10;99.90;;;;;;5041251;28;1070279;-49
2023/10/12 03:37:03;;;;;;;9.77;1.90;;;12.10;99.90;;;;;;5087534;28;20186;-43
2023/10/12 03:39:42;;;;;;;8.07;2.23;;;12.10;99.90;;;;;;5088546;28;20233;-52
2023/10/12 03:42:22;;;;;;;13.63;2.30;;;12.00;99.90;;;;;;5056842;28;20202;-45
2023/10/12 03:44:53;;;;;;;9.67;1.73;;;12.00;99.90;;;;;;5085180;28;20197;-51
2023/10/12 03:47:29;;;;;;;6.30;1.70;;;12.00;99.90;;;;;;5084778;28;20218;-43
2023/10/12 03:50:00;;;;;;;9.07;1.90;;;12.00;99.90;;;;;;5079128;28;20232;-54
2023/10/12 03:52:34;;;;;;;7.67;2.07;;;12.00;99.90;;;;;;5088984;28;20271;-44
2023/10/12 03:55:19;;;;;;;8.10;1.90;;;12.00;99.90;;;;;;5082634;28;20565;-51
2023/10/12 03:58:00;;;;;;;9.57;1.67;;;12.00;99.90;;;;;;5059593;28;20209;-53
2023/10/12 04:00:34;;;;;;;9.03;2.17;;;12.00;99.90;;;;;;5086317;28;20226;-44
2023/10/12 04:03:10;;;;;;;6.00;1.57;;;12.00;99.90;;;;;;5081340;28;20224;-52
2023/10/12 04:08:38;;;;;;;10.07;1.90;;;12.00;99.90;;;;;;5077307;28;20286;-45
2023/10/12 04:14:45;;;;;;;9.37;1.60;;;12.00;99.90;;;;;;4988193;28;20960;-47
2023/10/12 04:17:39;;;;;;;7.07;1.57;;;12.00;99.90;;;;;;5077580;28;20194;-49
2023/10/12 04:20:15;;;;;;;7.77;1.60;;;12.00;99.90;;;;;;5067889;28;20245;-47
2023/10/12 04:23:13;;;;;;;10.90;2.10;;;11.90;99.90;;;;;;5071577;28;20304;-51
2023/10/12 04:25:32;;;;;;;13.23;2.80;;;12.00;99.90;;;;;;5069896;28;20744;-55
2023/10/12 04:28:16;;;;;;;6.97;1.90;;;12.00;99.90;;;;;;5047896;28;20923;-46
2023/10/12 04:31:20;;;;;;;8.17;2.00;;;12.00;99.90;;;;;;5084514;28;20928;-46
2023/10/12 04:33:43;;;;;;;5.77;1.33;;;12.00;99.90;;;;;;5079186;28;20388;-54
2023/10/12 04:36:21;;;;;;;9.10;1.67;;;12.00;99.90;;;;;;5067015;28;21810;-44
2023/10/12 04:38:57;;;;;;;8.83;1.90;;;12.00;99.90;;;;;;5089962;28;20197;-51
2023/10/12 04:41:26;;;;;;;8.03;1.80;;;12.00;99.90;;;;;;5086408;28;20213;-49
2023/10/12 04:43:53;;;;;;;12.57;1.90;;;12.00;99.90;;;;;;5044104;28;20213;-54
2023/10/12 04:46:39;;;;;;;9.40;2.47;;;12.00;99.90;;;;;;5089655;28;20185;-43
2023/10/12 04:52:13;;;;;;;7.10;1.70;;;12.00;99.90;;;;;;5057510;28;20342;-52
2023/10/12 04:54:59;;;;;;;7.23;1.63;;;12.00;99.90;;;;;;5088187;28;20208;-47
2023/10/12 04:57:31;;;;;;;10.97;2.17;;;12.00;99.90;;;;;;5086443;28;20205;-47
2023/10/12 05:00:09;;;;;;;6.17;1.40;;;12.00;99.90;;;;;;5047653;28;20220;-54
2023/10/12 05:02:54;;;;;;;7.30;1.80;;;12.00;99.90;;;;;;5085454;28;20225;-43
2023/10/12 05:05:54;;;;;;;11.13;1.87;;;12.10;99.90;;;;;;5081413;28;20197;-44
2023/10/12 05:08:21;;;;;;;9.87;2.10;;;12.10;99.90;;;;;;5072170;28;20221;-46
2023/10/12 05:10:48;;;;;;;14.50;2.27;;;12.10;99.90;;;;;;5075162;28;20276;-49
2023/10/12 05:13:20;;;;;;;9.20;1.97;;;12.10;99.90;;;;;;5083132;28;23378;-47
2023/10/12 05:15:54;;;;;;;12.60;2.60;;;12.10;99.90;;;;;;5054555;28;20360;-54
2023/10/12 05:18:22;;;;;;;8.47;1.50;;;12.10;99.90;;;;;;5088518;28;20200;-49
2023/10/12 05:20:51;;;;;;;8.23;1.60;;;12.10;99.90;;;;;;5076320;28;20222;-51
2023/10/12 05:23:18;;;;;;;9.77;1.60;;;12.10;99.90;;;;;;5077662;28;20247;-51
2023/10/12 05:25:53;;;;;;;10.33;1.70;;;12.10;99.90;;;;;;5085038;28;20255;-43
2023/10/12 05:28:21;;;;;;;11.47;2.17;;;12.10;99.90;;;;;;5075646;28;20225;-46
2023/10/12 05:30:50;;;;;;;7.20;1.80;;;12.10;99.90;;;;;;5055267;28;20225;-51
2023/10/12 05:33:38;;;;;;;15.43;2.80;;;12.10;99.90;;;;;;5084545;28;20189;-45
2023/10/12 05:36:11;;;;;;;7.10;2.00;;;12.10;99.90;;;;;;5075892;28;20671;-52
2023/10/12 05:38:39;;;;;;;7.97;2.20;;;12.10;99.90;;;;;;5073307;28;20189;-49
2023/10/12 05:41:09;;;;;;;10.43;2.10;;;12.10;99.90;;;;;;5073407;28;20296;-43
2023/10/12 05:43:39;;;;;;;8.77;1.83;;;12.20;99.90;;;;;;5076478;28;20248;-50
2023/10/12 05:46:10;;;;;;;13.80;2.57;;;12.10;99.90;;;;;;5050758;28;20206;-45
2023/10/12 05:48:41;;;;;;;8.47;1.70;;;12.10;99.90;;;;;;5091959;28;20243;-44
2023/10/12 05:51:11;;;;;;;20.70;2.53;;;12.10;99.90;;;;;;5073814;28;20232;-44
2023/10/12 05:53:38;;;;;;;9.43;2.10;;;12.10;99.90;;;;;;5081791;28;20198;-51
2023/10/12 05:56:06;;;;;;;6.67;1.83;;;12.10;99.90;;;;;;5063123;28;20193;-50
2023/10/12 05:58:34;;;;;;;11.30;2.57;;;12.10;99.90;;;;;;5072131;28;20317;-43
2023/10/12 06:01:08;;;;;;;10.83;2.33;;;12.10;99.90;;;;;;5063465;28;20395;-43
2023/10/12 06:03:36;;;;;;;13.67;1.83;;;12.10;99.90;;;;;;5067491;28;20190;-43
2023/10/12 06:06:04;;;;;;;6.57;1.70;;;12.10;99.90;;;;;;5078548;28;20202;-52
2023/10/12 06:08:33;;;;;;;6.13;1.70;;;12.10;99.90;;;;;;5074955;28;20279;-52
2023/10/12 06:11:00;;;;;;;6.90;1.33;;;12.10;99.90;;;;;;5054136;28;20230;-49
2023/10/12 06:13:31;;;;;;;8.63;1.80;;;12.10;99.90;;;;;;5085062;28;20603;-47
2023/10/12 06:15:58;;;;;;;12.13;2.03;;;12.10;99.90;;;;;;5045986;28;20229;-43
2023/10/12 06:18:30;;;;;;;8.50;1.80;;;12.10;99.90;;;;;;5053198;28;20220;-53
2023/10/12 06:20:59;;;;;;;6.67;1.97;;;12.10;99.90;;;;;;5077910;28;20245;-47
2023/10/12 06:23:28;;;;;;;10.37;1.83;;;12.20;99.90;;;;;;5072159;28;20206;-44
2023/10/12 06:25:57;;;;;;;10.03;1.90;;;12.20;99.90;;;;;;5087564;28;20273;-46
2023/10/12 06:28:27;;;;;;;12.93;2.17;;;12.20;99.90;;;;;;5049614;28;20216;-52
2023/10/12 06:30:54;;;;;;;10.47;2.07;;;12.20;99.90;;;;;;5048875;28;20226;-46
2023/10/12 06:33:22;;;;;;;7.70;1.70;;;12.20;99.90;;;;;;5052667;28;20297;-50
2023/10/12 06:38:47;;;;;;;12.50;1.90;;;12.20;99.90;;;;;;5073458;28;20347;-49
2023/10/12 06:44:22;;;;;;;7.43;1.93;;;12.20;99.90;;;;;;5070237;28;20546;-44
2023/10/12 06:46:49;;;;;;;9.27;1.80;;;12.20;99.90;;;;;;5072518;28;20198;-53
2023/10/12 06:49:18;;;;;;;12.03;2.10;;;12.30;99.90;;;;;;5038996;28;20217;-43
2023/10/12 06:51:53;;;;;;;6.03;1.70;;;12.30;99.90;;;;;;5085748;28;20656;-47
2023/10/12 06:54:31;;;;;;;12.43;2.17;;;12.30;99.90;;;;;;5078468;28;21045;-46
2023/10/12 06:59:52;;;;;;;5.50;1.50;;;12.30;99.90;;;;;;5090112;28;20222;-45
2023/10/12 07:02:22;;;;;;;11.63;2.00;;;12.30;99.90;;;;;;5077119;28;20205;-46
2023/10/12 07:04:54;;;;;;;10.13;2.30;;;12.30;99.90;;;;;;5053448;28;20206;-48
2023/10/12 07:07:27;;;;;;;7.00;2.07;;;12.30;99.90;;;;;;5084375;28;20914;-48
2023/10/12 07:10:12;;;;;;;7.70;1.60;;;12.30;99.90;;;;;;5077045;28;20241;-44
2023/10/12 07:12:44;;;;;;;7.83;1.73;;;12.30;99.90;;;;;;5067288;28;20205;-49
2023/10/12 07:15:12;;;;;;;12.07;2.23;;;12.30;99.90;;;;;;5084012;28;20177;-51
2023/10/12 07:17:48;;;;;;;6.63;1.77;;;12.30;99.90;;;;;;5092308;28;20593;-53
2023/10/12 07:20:27;;;;;;;10.67;1.80;;;12.30;99.90;;;;;;5048943;28;20216;-55
2023/10/12 07:22:54;;;;;;;7.87;1.70;;;12.30;99.90;;;;;;5083465;28;20198;-47
2023/10/12 07:25:23;;;;;;;6.97;1.37;;;12.30;99.90;;;;;;5082015;28;20189;-50
2023/10/12 07:27:58;;;;;;;9.20;1.80;;;12.30;99.90;;;;;;5081470;28;20668;-48
2023/10/12 07:30:33;;;;;;;6.93;1.80;;;12.40;99.90;;;;;;5092781;28;20228;-44
2023/10/12 07:33:00;;;;;;;7.30;1.97;;;12.40;99.90;;;;;;5081919;28;20276;-49
2023/10/12 07:35:34;;;;;;;8.13;1.57;;;12.30;99.90;;;;;;5055055;28;20631;-50
2023/10/12 07:38:01;;;;;;;8.03;1.67;;;12.40;99.90;;;;;;5087261;28;20235;-47
2023/10/12 07:40:35;;;;;;;7.77;2.20;;;12.40;99.90;;;;;;5078012;28;20696;-53
2023/10/12 07:43:07;;;;;;;9.63;1.87;;;12.40;99.90;;;;;;5067417;28;20221;-49
2023/10/12 07:45:38;;;;;;;6.80;1.60;;;12.50;99.90;;;;;;5082140;28;20223;-47
2023/10/12 07:48:09;;;;;;;10.77;1.63;;;12.50;99.90;;;;;;5062918;28;20263;-45
2023/10/12 07:50:45;;;;;;;5.13;1.37;;;12.60;99.90;;;;;;5046317;28;20222;-48
2023/10/12 07:53:24;;;;;;;10.20;1.37;;;12.70;99.90;;;;;;5081244;28;20268;-51
2023/10/12 07:55:56;;;;;;;13.43;1.50;;;12.70;99.90;;;;;;5077660;28;20255;-48
2023/10/12 07:58:29;;;;;;;10.30;2.47;;;12.80;99.90;;;;;;5082326;28;20892;-55
2023/10/12 08:01:19;;;;;;;8.17;1.57;;;12.90;99.90;;;;;;5081307;28;20306;-44
2023/10/12 08:03:50;;;;;;;8.20;1.90;;;12.90;99.90;;;;;;5086624;28;20190;-49
2023/10/12 08:06:19;;;;;;;8.87;1.70;;;13.00;99.90;;;;;;5047744;28;20206;-48
2023/10/12 08:08:47;;;;;;;10.33;2.20;;;12.90;99.90;;;;;;5085483;28;20683;-47
2023/10/12 08:11:27;;;;;;;8.50;2.30;;;13.00;99.90;;;;;;5072566;28;20225;-49
2023/10/12 08:13:56;;;;;;;5.17;1.50;;;13.00;99.90;;;;;;5073035;28;20596;-43
2023/10/12 08:16:37;;;;;;;9.03;1.80;;;13.10;99.90;;;;;;5081598;28;20251;-49
2023/10/12 08:19:23;;;;;;;8.63;1.50;;;13.00;99.90;;;;;;5082283;28;20190;-49
2023/10/12 08:21:58;;;;;;;10.80;1.77;;;13.00;99.90;;;;;;5039732;28;21686;-48
2023/10/12 08:24:25;;;;;;;4.07;1.40;;;13.10;99.90;;;;;;5083520;28;20198;-48
2023/10/12 08:27:00;;;;;;;9.37;1.83;;;13.20;99.90;;;;;;5078285;28;20300;-46
2023/10/12 08:32:16;;;;;;;8.43;1.27;;;13.40;99.90;;;;;;5080846;28;20193;-47
2023/10/12 08:34:42;;;;;;;6.70;1.57;;;13.50;99.90;;;;;;5085788;28;20201;-45
2023/10/12 08:37:20;;;;;;;7.67;1.80;;;13.60;99.90;;;;;;5049084;28;20201;-47
2023/10/12 08:39:51;;;;;;;7.63;1.43;;;13.70;99.90;;;;;;5079987;28;20209;-49
2023/10/12 08:42:39;;;;;;;5.27;1.90;;;13.80;99.90;;;;;;5081094;28;20667;-55
2023/10/12 08:45:09;;;;;;;8.87;1.70;;;13.90;99.90;;;;;;5078583;28;20958;-44
2023/10/12 08:47:44;;;;;;;4.70;1.03;;;13.90;99.90;;;;;;5086109;28;20251;-48
2023/10/12 08:50:47;;;;;;;6.83;1.73;;;14.00;99.90;;;;;;5088930;28;20210;-49
2023/10/12 08:53:18;;;;;;;7.70;1.50;;;14.10;99.90;;;;;;5052570;28;20284;-44
2023/10/12 08:55:47;;;;;;;7.83;1.40;;;14.10;99.90;;;;;;5086156;28;20938;-46
2023/10/12 08:58:31;;;;;;;11.33;1.80;;;14.10;99.90;;;;;;5082186;28;20189;-51
2023/10/12 09:01:09;;;;;;;16.47;2.00;;;14.10;99.90;;;;;;5079321;28;20221;-44
2023/10/12 09:03:44;;;;;;;7.60;1.27;;;14.10;99.90;;;;;;5083695;28;20197;-48
2023/10/12 09:08:57;;;;;;;5.37;1.77;;;14.10;99.90;;;;;;5057520;28;20247;-45
2023/10/12 09:11:29;;;;;;;14.13;2.00;;;14.10;99.90;;;;;;5082108;28;20639;-54
2023/10/12 09:13:58;;;;;;;8.60;1.80;;;14.10;99.90;;;;;;5085557;28;20570;-44
2023/10/12 09:16:27;;;;;;;6.67;1.50;;;14.10;99.90;;;;;;5081133;28;20251;-51
2023/10/12 09:18:59;;;;;;;7.77;1.70;;;14.10;99.90;;;;;;5089300;28;20611;-46
2023/10/12 09:21:38;;;;;;;6.93;1.40;;;14.10;99.90;;;;;;5075737;28;20701;-45
2023/10/12 09:24:06;;;;;;;3.37;1.30;;;14.10;99.90;;;;;;5038710;28;20992;-45
2023/10/12 09:26:34;;;;;;;6.97;1.37;;;14.10;99.90;;;;;;5087041;28;20197;-44
2023/10/12 09:29:13;;;;;;;10.27;2.40;;;14.20;99.90;;;;;;5072316;28;20354;-50
2023/10/12 09:31:56;;;;;;;8.73;1.90;;;14.20;99.90;;;;;;5085294;28;20193;-45
2023/10/12 09:34:42;;;;;;;11.90;1.90;;;14.20;99.90;;;;;;5081388;28;20273;-47
2023/10/12 09:37:16;;;;;;;9.97;1.57;;;14.20;99.90;;;;;;5071865;28;20366;-43
2023/10/12 09:39:46;;;;;;;3.30;1.10;;;14.20;99.90;;;;;;5052834;28;20217;-47
2023/10/12 09:42:29;;;;;;;8.37;1.77;;;14.30;99.90;;;;;;5083367;28;20185;-44
2023/10/12 09:45:05;;;;;;;5.40;1.30;;;14.30;99.90;;;;;;5053832;28;20233;-54
2023/10/12 09:47:55;;;;;;;6.60;1.70;;;14.30;99.90;;;;;;5084803;28;20197;-47
2023/10/12 09:50:27;;;;;;;6.50;1.43;;;14.30;99.90;;;;;;5083539;28;20213;-44
2023/10/12 09:52:58;;;;;;;6.27;1.93;;;14.40;99.90;;;;;;5055173;28;20284;-54
2023/10/12 09:55:32;;;;;;;4.83;1.13;;;14.40;99.90;;;;;;5089569;28;20200;-43
2023/10/12 09:58:14;;;;;;;7.50;1.30;;;14.50;99.90;;;;;;5084648;28;20212;-48
2023/10/12 10:01:01;;;;;;;6.23;1.47;;;14.60;99.90;;;;;;5064708;28;21721;-47
2023/10/12 10:03:40;;;;;;;10.57;1.50;;;14.70;99.90;;;;;;5066273;28;20277;-50
2023/10/12 10:06:20;;;;;;;4.27;1.27;;;14.70;99.90;;;;;;5087248;28;20193;-44
2023/10/12 10:09:06;;;;;;;3.00;1.20;;;14.80;99.90;;;;;;5040972;28;20729;-49
2023/10/12 10:11:36;;;;;;;7.17;1.30;;;14.90;99.90;;;;;;5076573;28;20194;-46
2023/10/12 10:14:04;;;;;;;7.07;1.40;;;14.90;99.90;;;;;;5085702;28;20194;-44
2023/10/12 10:16:46;;;;;;;7.10;1.40;;;14.90;99.90;;;;;;5073041;28;20201;-46
2023/10/12 10:19:16;;;;;;;6.43;2.20;;;14.90;99.90;;;;;;5075897;28;20213;-49
2023/10/12 10:21:52;;;;;;;6.90;1.17;;;14.90;99.90;;;;;;5082883;28;20278;-46
2023/10/12 10:24:24;;;;;;;7.03;1.33;;;14.90;99.90;;;;;;5050500;28;20563;-55
2023/10/12 10:26:58;;;;;;;6.87;1.57;;;14.90;99.90;;;;;;5085655;28;20198;-50
2023/10/12 10:29:41;;;;;;;8.30;0.83;;;14.90;99.90;;;;;;5076815;28;20218;-51
2023/10/12 10:32:08;;;;;;;5.20;0.97;;;15.00;99.90;;;;;;5099862;28;20289;-52
2023/10/12 10:34:36;;;;;;;5.93;1.43;;;15.10;99.90;;;;;;5077891;28;20274;-43
2023/10/12 10:37:04;;;;;;;8.80;1.30;;;15.10;99.90;;;;;;5090826;28;20219;-44
2023/10/12 10:39:31;;;;;;;4.87;1.30;;;15.20;99.90;;;;;;5050938;28;20225;-45
2023/10/12 10:42:00;;;;;;;8.47;1.60;;;15.20;99.90;;;;;;5096648;28;20606;-51
2023/10/12 10:44:29;;;;;;;8.43;1.60;;;15.20;99.90;;;;;;5085439;28;20201;-51
2023/10/12 10:47:00;;;;;;;8.83;1.60;;;15.20;99.90;;;;;;5081044;28;20216;-44
2023/10/12 10:49:31;;;;;;;8.40;1.27;;;15.30;99.90;;;;;;5073669;28;20963;-48
2023/10/12 10:52:13;;;;;;;9.50;1.57;;;15.30;99.90;;;;;;5085773;28;20198;-47
2023/10/12 10:54:56;;;;;;;9.63;1.23;;;15.40;99.90;;;;;;5068170;28;20232;-44
2023/10/12 10:57:31;;;;;;;10.07;1.80;;;15.40;99.90;;;;;;5081749;28;20271;-47
2023/10/12 11:00:00;;;;;;;6.43;1.30;;;15.40;99.90;;;;;;5075253;28;20213;-52
2023/10/12 11:02:28;;;;;;;6.10;1.53;;;15.50;99.90;;;;;;5083712;28;20681;-47
2023/10/12 11:04:59;;;;;;;8.07;1.50;;;15.60;99.90;;;;;;5080476;28;20254;-54
2023/10/12 11:07:27;;;;;;;9.13;1.83;;;15.70;99.90;;;;;;5085385;28;20193;-45
2023/10/12 11:10:19;;;;;;;6.97;1.73;;;15.70;99.90;;;;;;5057166;28;20229;-52
2023/10/12 11:12:45;;;;;;;6.87;1.47;;;15.80;99.90;;;;;;5085790;28;20721;-51
2023/10/12 11:15:19;;;;;;;8.73;1.10;;;15.80;99.90;;;;;;5073305;28;20960;-48
2023/10/12 11:17:56;;;;;;;8.37;1.30;;;15.70;99.90;;;;;;5075089;28;20209;-50
2023/10/12 11:20:38;;;;;;;10.43;1.73;;;15.70;99.90;;;;;;5076473;28;20225;-44
2023/10/12 11:23:08;;;;;;;5.20;1.27;;;15.80;99.90;;;;;;5074890;28;20196;-44
2023/10/12 11:25:39;;;;;;;5.03;1.30;;;15.80;99.90;;;;;;5078235;28;20205;-46
2023/10/12 11:28:23;;;;;;;6.47;1.50;;;15.70;99.90;;;;;;5062069;28;20193;-44
2023/10/12 11:30:51;;;;;;;9.03;1.33;;;15.80;99.90;;;;;;5075263;28;20230;-48
2023/10/12 11:33:27;;;;;;;7.20;1.17;;;15.80;99.90;;;;;;5081070;28;20287;-45
2023/10/12 11:36:00;;;;;;;3.17;1.07;;;15.60;99.90;;;;;;5078105;28;20228;-48
2023/10/12 11:38:29;;;;;;;4.47;1.30;;;15.50;99.90;;;;;;5085186;28;20714;-43
2023/10/12 11:40:56;;;;;;;4.73;1.20;;;15.40;99.90;;;;;;5053163;28;20233;-54
2023/10/12 11:43:29;;;;;;;7.23;1.70;;;15.30;99.90;;;;;;5089810;28;20199;-44
2023/10/12 11:46:01;;;;;;;9.90;1.77;;;15.20;99.90;;;;;;5073650;28;20686;-52
2023/10/12 11:48:29;;;;;;;8.93;1.30;;;15.30;99.90;;;;;;5076957;28;20209;-46
2023/10/12 11:50:57;;;;;;;4.10;1.07;;;15.20;99.90;;;;;;5087176;28;20275;-50
2023/10/12 11:53:24;;;;;;;8.83;1.80;;;15.00;99.90;;;;;;5074883;28;20255;-45
2023/10/12 11:56:03;;;;;;;6.10;1.27;;;14.90;99.90;;;;;;5082143;28;20201;-56
2023/10/12 11:58:32;;;;;;;7.60;1.30;;;14.90;99.90;;;;;;5057970;28;20299;-49
2023/10/12 12:01:00;;;;;;;4.03;1.30;;;14.80;99.90;;;;;;5071192;28;20314;-55
2023/10/12 12:03:27;;;;;;;7.30;1.03;;;14.80;99.90;;;;;;5074493;28;20198;-45
2023/10/12 12:05:54;;;;;;;7.73;0.93;;;14.80;99.90;;;;;;5091184;28;20198;-50
2023/10/12 12:08:24;;;;;;;5.63;1.23;;;14.90;99.90;;;;;;5076678;28;20250;-43
2023/10/12 12:10:54;;;;;;;6.87;1.20;;;14.90;99.90;;;;;;5087937;28;20240;-46
2023/10/12 12:13:24;;;;;;;7.80;1.43;;;15.00;99.90;;;;;;5048650;28;20205;-44
2023/10/12 12:15:55;;;;;;;5.57;1.37;;;15.10;99.90;;;;;;5074929;28;20221;-51
2023/10/12 12:18:23;;;;;;;6.40;1.03;;;15.20;99.90;;;;;;5085508;28;20255;-43
2023/10/12 12:20:52;;;;;;;6.53;1.23;;;15.20;99.90;;;;;;5063338;28;20243;-46
2023/10/12 12:23:19;;;;;;;5.07;1.00;;;15.30;99.90;;;;;;5077700;28;20240;-53
2023/10/12 12:25:47;;;;;;;10.43;1.80;;;15.20;99.90;;;;;;5088181;28;20255;-46
2023/10/12 12:28:15;;;;;;;4.03;0.97;;;15.20;99.90;;;;;;5075847;28;20205;-54
2023/10/12 12:30:51;;;;;;;5.67;1.30;;;15.20;99.90;;;;;;5062113;28;20271;-43
2023/10/12 12:33:18;;;;;;;5.47;0.97;;;15.20;99.90;;;;;;5091416;28;20204;-52
2023/10/12 12:35:46;;;;;;;4.63;1.37;;;15.10;99.90;;;;;;5080313;28;20197;-51
2023/10/12 12:38:28;;;;;;;7.50;1.20;;;15.20;99.90;;;;;;5085080;28;20220;-53
2023/10/12 12:40:55;;;;;;;6.93;1.10;;;15.10;99.90;;;;;;5084545;28;20224;-44
2023/10/12 12:43:22;;;;;;;7.37;1.10;;;15.20;99.90;;;;;;5061661;28;20205;-54
2023/10/12 12:45:52;;;;;;;3.53;1.13;;;15.30;99.90;;;;;;5076574;28;20186;-46
2023/10/12 12:48:19;;;;;;;6.30;1.00;;;15.40;99.90;;;;;;5077354;28;20284;-56
2023/10/12 12:50:47;;;;;;;7.07;1.80;;;15.40;99.90;;;;;;5076981;28;20213;-51
2023/10/12 12:53:18;;;;;;;5.60;1.00;;;15.40;99.90;;;;;;5088904;28;20200;-55
2023/10/12 12:55:46;;;;;;;7.00;1.60;;;15.40;99.90;;;;;;5085737;28;20200;-44
2023/10/12 12:58:15;;;;;;;5.93;1.17;;;15.50;99.90;;;;;;5079469;28;20270;-51
2023/10/12 13:00:42;;;;;;;7.10;1.03;;;15.60;99.90;;;;;;5041413;28;20217;-44
2023/10/12 13:03:11;;;;;;;5.83;1.20;;;15.70;99.90;;;;;;5082476;28;20213;-47
2023/10/12 13:05:38;;;;;;;3.67;0.80;;;15.70;99.90;;;;;;5072289;28;20320;-48
2023/10/12 13:08:07;;;;;;;6.90;1.10;;;15.70;99.90;;;;;;5077410;28;20198;-44
2023/10/12 13:10:35;;;;;;;3.60;0.90;;;15.70;99.90;;;;;;5071637;28;20214;-45
2023/10/12 13:13:03;;;;;;;8.67;1.33;;;15.70;99.90;;;;;;5076400;28;20598;-44
2023/10/12 13:15:31;;;;;;;5.33;1.10;;;15.70;99.90;;;;;;5043912;28;20675;-54
2023/10/12 13:17:59;;;;;;;6.50;1.10;;;15.80;99.90;;;;;;5076501;28;20217;-44
2023/10/12 13:20:30;;;;;;;8.27;1.23;;;15.70;99.90;;;;;;5076173;28;20586;-50
2023/10/12 13:22:57;;;;;;;4.27;1.07;;;15.70;99.90;;;;;;5079776;28;20220;-45
2023/10/12 13:25:26;;;;;;;7.63;1.17;;;15.70;99.90;;;;;;5079499;28;20201;-52
2023/10/12 13:27:53;;;;;;;4.07;1.10;;;16.00;99.90;;;;;;5085922;28;20293;-46
2023/10/12 13:30:21;;;;;;;7.33;1.10;;;16.30;99.90;;;;;;5048359;28;20263;-54
2023/10/12 13:32:48;;;;;;;6.00;1.13;;;16.20;99.90;;;;;;5086702;28;20188;-45
2023/10/12 13:35:37;;;;;;;5.10;1.33;;;16.10;99.90;;;;;;5076316;28;20206;-54
2023/10/12 13:38:06;;;;;;;2.70;0.67;;;16.20;99.90;;;;;;5087328;28;20579;-48
2023/10/12 13:40:36;;;;;;;4.53;1.43;;;16.20;99.90;;;;;;5082869;28;20228;-47
2023/10/12 13:43:14;;;;;;;3.70;0.90;;;16.30;99.90;;;;;;5072972;28;20221;-46